Alexandria, Egypt

9:41 AM EET on September 27, 2016 (GMT +0200)
Shatby | | Change Station

Elev 59 ft 31.21 °N, 29.92 °E | Updated 8 seconds ago

Scattered Clouds
Scattered Clouds
77.4 °F
Feels Like 78 °F
N
0.0
Wind Variable Wind from North
Gusts 0.0 mph

Today
High -- | Low -- °F
--% Chance of Precip.
Yesterday
High -- | Low -- °F
Precip. -- in
Pressure 30.01 in
Visibility 6.2 miles
Clouds Scattered Clouds 2000 ft
Heat Index 78 °F
Dew Point 44 °F
Humidity 31%
Rainfall 0.00 in
Snow Depth Not available.
5:51 AM 5:50 PM
Waning Crescent, 13% visible
METAR HEAX 270700Z 34007KT 9999 SCT020 25/13 Q1016 NOSIG
Pressure 30.01 in
Visibility 6.2 miles
Clouds Scattered Clouds 2000 ft
Heat Index 78 °F
Dew Point 44 °F
Humidity 31%
Rainfall 0.00 in
Snow Depth Not available.
5:51 AM 5:50 PM
Waning Crescent, 13% visible
METAR HEAX 270700Z 34007KT 9999 SCT020 25/13 Q1016 NOSIG

10-Day Weather Forecast

No radar image for this location.
×

Almanac

Astronomy

Sep. 27, 2016 Rise Set
Actual Time
Civil Twilight
Nautical Twilight
Astronomical Twilight
Moon
Length of Visible Light
Length of Day
Tomorrow will be .
, % of the Moon is Illuminated

Today's Extremes

Country Highs Country Lows

Community

WunderPhotos

Upload Photos

1,942,040 photos uploaded!

WunderBlog® & News

Nearby

Air Quality

  Air Quality AQ Index Pollutant
Not available.

Snow Depth

Station Depth Elevation

Earthquake Activity

City Distance Mag. Time & Date
Minimum magnitude displayed is 2.5.

Coastal Water Temperatures

Place Temperature

Stations

Nearby Weather Stations

Station Location Temp. Windchill Dew Point Humidity Wind Precip. Elev Updated Type